Kasagimaru — JJ3905 — position and weather

sailwx.info

Track history (hours):
 
Tides and Currents Weather Stations Pressure Air Temp Water Temp Dewpoint Dewpoint Depression Visibility Wind Speed Wind Dir Waves Ship Positions

Kasagimaru

Last reported at 2014-Oct-30 04:26 UTC. Time now 2014-Oct-31 04:12 UTC.
Position N 34°18' E 134°59'.

Length 42 m; draft 3.5 m.

Type: Tug. MMSI: 431300268.

Date/timePositionNaut miles runAvg speedWind from/ knotsBaromVisibWave heightAir tempDewpointWater temp
2014-Oct-30 04:26N 34°18' E 134°59'1213.7
2014-Oct-30 03:33N 34°29' E 135°05'8 7.7
2014-Oct-30 02:33N 34°37' E 135°02'6 0.1
2014-Oct-28 01:29N 34°36' E 134°55'9 9.9
2014-Oct-28 00:33N 34°36' E 135°06'6 5.7
2014-Oct-27 23:33N 34°30' E 135°06'1513.5
2014-Oct-27 22:29N 34°16' E 134°59'6 6.6
2014-Oct-27 21:33N 34°11' E 135°02'6 6.4
2014-Oct-27 20:33N 34°13' E 135°09'0 0.0
2014-Oct-27 19:33N 34°13' E 135°09'0 0.0
2014-Oct-27 18:34N 34°13' E 135°09'0 0.0
2014-Oct-27 17:33N 34°13' E 135°09'0 0.0
2014-Oct-27 16:34N 34°13' E 135°09'0 0.0
2014-Oct-27 15:33N 34°13' E 135°09'0 0.0
2014-Oct-27 14:33N 34°13' E 135°09'0 0.0
2014-Oct-27 13:34N 34°13' E 135°09'0 0.0
2014-Oct-27 12:33N 34°13' E 135°09'0 0.0
2014-Oct-27 11:34N 34°13' E 135°09'0 0.0
2014-Oct-27 10:33N 34°13' E 135°09'0 0.0
2014-Oct-27 09:34N 34°13' E 135°09'0 0.0
2014-Oct-27 08:33N 34°13' E 135°09'0 0.0
2014-Oct-27 07:33N 34°13' E 135°09'0 0.0
2014-Oct-27 06:33N 34°13' E 135°09'0 0.0
2014-Oct-27 05:33N 34°13' E 135°09'0 0.0
2014-Oct-27 04:33N 34°13' E 135°09'0 0.0
2014-Oct-27 03:33N 34°13' E 135°09'0 0.0
2014-Oct-27 02:34N 34°13' E 135°09'0 0.0
2014-Oct-27 01:33N 34°13' E 135°09'0 0.0
2014-Oct-27 00:34N 34°13' E 135°09'0 0.0
2014-Oct-26 23:33N 34°13' E 135°09'0 0.0
2014-Oct-26 22:34N 34°13' E 135°09'0 0.0
2014-Oct-26 21:33N 34°13' E 135°09'0 0.0
2014-Oct-26 20:33N 34°13' E 135°09'0 0.0
2014-Oct-26 19:33N 34°13' E 135°09'0 0.0
2014-Oct-26 18:33N 34°13' E 135°09'0 0.0
2014-Oct-26 17:33N 34°13' E 135°09'0 0.0
2014-Oct-26 16:34N 34°13' E 135°09'0 0.0
2014-Oct-26 15:33N 34°13' E 135°09'0 0.0
2014-Oct-26 14:33N 34°13' E 135°09'0 0.0
2014-Oct-26 13:33N 34°13' E 135°09'0 0.0
2014-Oct-26 12:34N 34°13' E 135°09'0 0.0
2014-Oct-26 11:34N 34°13' E 135°09'0 0.0
2014-Oct-26 10:33N 34°13' E 135°09'0 0.0
2014-Oct-26 09:33N 34°13' E 135°09'0 0.0
2014-Oct-26 08:33N 34°13' E 135°09'0 0.0
2014-Oct-26 07:34N 34°13' E 135°09'0 0.0
2014-Oct-26 06:33N 34°13' E 135°09'0 0.0
2014-Oct-26 05:33N 34°13' E 135°09'0 0.0
2014-Oct-26 04:33N 34°13' E 135°09'7 7.0
2014-Oct-26 03:29N 34°15' E 135°00'1011.1
2014-Oct-26 02:33N 34°25' E 135°04'1312.5
2014-Oct-26 01:33N 34°32' E 135°17'6 6.3
2014-Oct-26 00:33N 34°33' E 135°24'0 0.1
2014-Oct-25 23:33N 34°33' E 135°24'2 2.1
2014-Oct-25 22:33N 34°33' E 135°27'0 0.0
2014-Oct-25 21:33N 34°33' E 135°27'0 0.0
2014-Oct-25 19:30N 34°33' E 135°27'0 0.0
2014-Oct-25 18:33N 34°33' E 135°27'0 0.0
2014-Oct-25 17:33N 34°33' E 135°27'0 0.0
2014-Oct-25 16:33N 34°33' E 135°27'0 0.0
2014-Oct-25 15:33N 34°33' E 135°27'0 0.0
2014-Oct-25 11:33N 34°33' E 135°27'0 0.0
2014-Oct-25 10:33N 34°33' E 135°27'0 0.0
2014-Oct-25 09:33N 34°33' E 135°27'0 0.0
2014-Oct-25 08:33N 34°33' E 135°27'0 0.0
2014-Oct-25 07:32N 34°33' E 135°27'0 0.0
2014-Oct-25 06:33N 34°33' E 135°27'0 0.0
2014-Oct-25 05:32N 34°33' E 135°27'0 0.0
2014-Oct-25 04:22N 34°33' E 135°27'7 8.4
2014-Oct-25 03:33N 34°29' E 135°20'1211.8
2014-Oct-25 02:33N 34°22' E 135°09'1211.5
2014-Oct-25 01:32N 34°13' E 134°60'  
2014-Oct-22 20:33N 34°40' E 134°49'1312.7
2014-Oct-22 19:33N 34°37' E 135°03'1212.4
2014-Oct-22 18:33N 34°34' E 135°18'7 7.1
2014-Oct-22 17:33N 34°33' E 135°27'0 0.0
2014-Oct-22 16:33N 34°33' E 135°27'0 0.0
2014-Oct-22 15:33N 34°33' E 135°27'0 0.0
2014-Oct-22 14:33N 34°33' E 135°27'0 0.0
2014-Oct-22 13:33N 34°33' E 135°27'0 0.0
2014-Oct-22 12:32N 34°33' E 135°27'0 0.0
2014-Oct-22 11:33N 34°33' E 135°27'0 0.0
2014-Oct-22 10:33N 34°33' E 135°27'0 0.0
2014-Oct-22 09:26N 34°33' E 135°27'0 0.0
2014-Oct-22 08:19N 34°33' E 135°27'0 0.0
2014-Oct-22 07:31N 34°33' E 135°27'0 0.0
2014-Oct-22 06:19N 34°33' E 135°27'0 0.0
2014-Oct-22 05:22N 34°33' E 135°27'0 0.0
2014-Oct-22 04:32N 34°33' E 135°27'0 0.0
2014-Oct-22 03:20N 34°33' E 135°27'2 2.6
2014-Oct-22 02:33N 34°33' E 135°24'0 0.1
2014-Oct-22 01:33N 34°33' E 135°24'2 1.7
2014-Oct-22 00:25N 34°33' E 135°22'1 1.4
2014-Oct-21 23:33N 34°33' E 135°20'5 5.1
2014-Oct-21 22:32N 34°33' E 135°27'0 0.0
2014-Oct-21 21:26N 34°33' E 135°27'0 0.0
2014-Oct-21 20:33N 34°33' E 135°27'0 0.0
2014-Oct-21 19:33N 34°33' E 135°27'0 0.0
2014-Oct-21 18:32N 34°33' E 135°27'0 0.0
2014-Oct-21 17:32N 34°33' E 135°27'0 0.0
2014-Oct-21 16:33N 34°33' E 135°27'0 0.0
2014-Oct-21 15:33N 34°33' E 135°27'0 0.0
2014-Oct-21 14:33N 34°33' E 135°27'0 0.0
2014-Oct-21 13:33N 34°33' E 135°27'0 0.0
2014-Oct-21 12:33N 34°33' E 135°27'0 0.0
2014-Oct-21 11:33N 34°33' E 135°27'0 0.0
2014-Oct-21 10:33N 34°33' E 135°27'0 0.0
2014-Oct-21 09:04N 34°33' E 135°27'0 0.0
2014-Oct-21 08:33N 34°33' E 135°27'0 0.0
2014-Oct-21 07:31N 34°33' E 135°27'0 0.0
2014-Oct-21 05:33N 34°33' E 135°27'0 0.0
2014-Oct-21 04:31N 34°33' E 135°27'0 0.0
2014-Oct-21 03:33N 34°33' E 135°27'0 0.0
2014-Oct-21 02:26N 34°33' E 135°27'0 0.0
2014-Oct-21 01:31N 34°33' E 135°27'0 0.0
2014-Oct-21 00:33N 34°33' E 135°27'4 3.7
2014-Oct-20 23:33N 34°33' E 135°22'3 2.8
2014-Oct-20 22:33N 34°33' E 135°25'0 0.1
2014-Oct-20 21:33N 34°33' E 135°25'0 0.1
2014-Oct-20 20:33N 34°33' E 135°25'0 0.1
2014-Oct-20 19:33N 34°33' E 135°25'0 0.0
2014-Oct-20 18:33N 34°33' E 135°25'0 0.1
2014-Oct-20 17:29N 34°33' E 135°25'0 0.1
2014-Oct-20 16:33N 34°33' E 135°25'0 0.0
2014-Oct-20 15:32N 34°33' E 135°25'0 0.0
2014-Oct-20 14:33N 34°33' E 135°25'0 0.0
2014-Oct-20 13:32N 34°33' E 135°25'0 0.0
2014-Oct-20 12:33N 34°33' E 135°25'0 0.1
2014-Oct-20 11:33N 34°33' E 135°25'0 0.0
2014-Oct-20 10:33N 34°33' E 135°25'0 0.1
2014-Oct-20 09:33N 34°33' E 135°25'0 0.0
2014-Oct-20 08:30N 34°33' E 135°25'0 0.1
2014-Oct-20 07:32N 34°33' E 135°25'0 0.1
2014-Oct-20 06:31N 34°33' E 135°25'0 0.0
2014-Oct-20 05:31N 34°33' E 135°25'0 0.1
2014-Oct-20 04:33N 34°33' E 135°25'  
Track history (hours):
 
Tides and Currents Weather Stations Pressure Air Temp Water Temp Dewpoint Dewpoint Depression Visibility Wind Speed Wind Dir Waves Ship Positions

Kasagimaru

Last reported at 2014-Oct-30 04:26 UTC. Time now 2014-Oct-31 04:12 UTC.
Position N 34°18' E 134°59'.

Length 42 m; draft 3.5 m.

Type: Tug. MMSI: 431300268.

Date/timePositionNaut miles runAvg speedWind from/ knotsBaromVisibWave heightAir tempDewpointWater temp
2014-Oct-30 04:26N 34°18' E 134°59'1213.7
2014-Oct-30 03:33N 34°29' E 135°05'8 7.7
2014-Oct-30 02:33N 34°37' E 135°02'6 0.1
2014-Oct-28 01:29N 34°36' E 134°55'9 9.9
2014-Oct-28 00:33N 34°36' E 135°06'6 5.7
2014-Oct-27 23:33N 34°30' E 135°06'1513.5
2014-Oct-27 22:29N 34°16' E 134°59'6 6.6
2014-Oct-27 21:33N 34°11' E 135°02'6 6.4
2014-Oct-27 20:33N 34°13' E 135°09'0 0.0
2014-Oct-27 19:33N 34°13' E 135°09'0 0.0
2014-Oct-27 18:34N 34°13' E 135°09'0 0.0
2014-Oct-27 17:33N 34°13' E 135°09'0 0.0
2014-Oct-27 16:34N 34°13' E 135°09'0 0.0
2014-Oct-27 15:33N 34°13' E 135°09'0 0.0
2014-Oct-27 14:33N 34°13' E 135°09'0 0.0
2014-Oct-27 13:34N 34°13' E 135°09'0 0.0
2014-Oct-27 12:33N 34°13' E 135°09'0 0.0
2014-Oct-27 11:34N 34°13' E 135°09'0 0.0
2014-Oct-27 10:33N 34°13' E 135°09'0 0.0
2014-Oct-27 09:34N 34°13' E 135°09'0 0.0
2014-Oct-27 08:33N 34°13' E 135°09'0 0.0
2014-Oct-27 07:33N 34°13' E 135°09'0 0.0
2014-Oct-27 06:33N 34°13' E 135°09'0 0.0
2014-Oct-27 05:33N 34°13' E 135°09'0 0.0
2014-Oct-27 04:33N 34°13' E 135°09'0 0.0
2014-Oct-27 03:33N 34°13' E 135°09'0 0.0
2014-Oct-27 02:34N 34°13' E 135°09'0 0.0
2014-Oct-27 01:33N 34°13' E 135°09'0 0.0
2014-Oct-27 00:34N 34°13' E 135°09'0 0.0
2014-Oct-26 23:33N 34°13' E 135°09'0 0.0
2014-Oct-26 22:34N 34°13' E 135°09'0 0.0
2014-Oct-26 21:33N 34°13' E 135°09'0 0.0
2014-Oct-26 20:33N 34°13' E 135°09'0 0.0
2014-Oct-26 19:33N 34°13' E 135°09'0 0.0
2014-Oct-26 18:33N 34°13' E 135°09'0 0.0
2014-Oct-26 17:33N 34°13' E 135°09'0 0.0
2014-Oct-26 16:34N 34°13' E 135°09'0 0.0
2014-Oct-26 15:33N 34°13' E 135°09'0 0.0
2014-Oct-26 14:33N 34°13' E 135°09'0 0.0
2014-Oct-26 13:33N 34°13' E 135°09'0 0.0
2014-Oct-26 12:34N 34°13' E 135°09'0 0.0
2014-Oct-26 11:34N 34°13' E 135°09'0 0.0
2014-Oct-26 10:33N 34°13' E 135°09'0 0.0
2014-Oct-26 09:33N 34°13' E 135°09'0 0.0
2014-Oct-26 08:33N 34°13' E 135°09'0 0.0
2014-Oct-26 07:34N 34°13' E 135°09'0 0.0
2014-Oct-26 06:33N 34°13' E 135°09'0 0.0
2014-Oct-26 05:33N 34°13' E 135°09'0 0.0
2014-Oct-26 04:33N 34°13' E 135°09'7 7.0
2014-Oct-26 03:29N 34°15' E 135°00'1011.1
2014-Oct-26 02:33N 34°25' E 135°04'1312.5
2014-Oct-26 01:33N 34°32' E 135°17'6 6.3
2014-Oct-26 00:33N 34°33' E 135°24'0 0.1
2014-Oct-25 23:33N 34°33' E 135°24'2 2.1
2014-Oct-25 22:33N 34°33' E 135°27'0 0.0
2014-Oct-25 21:33N 34°33' E 135°27'0 0.0
2014-Oct-25 19:30N 34°33' E 135°27'0 0.0
2014-Oct-25 18:33N 34°33' E 135°27'0 0.0
2014-Oct-25 17:33N 34°33' E 135°27'0 0.0
2014-Oct-25 16:33N 34°33' E 135°27'0 0.0
2014-Oct-25 15:33N 34°33' E 135°27'0 0.0
2014-Oct-25 11:33N 34°33' E 135°27'0 0.0
2014-Oct-25 10:33N 34°33' E 135°27'0 0.0
2014-Oct-25 09:33N 34°33' E 135°27'0 0.0
2014-Oct-25 08:33N 34°33' E 135°27'0 0.0
2014-Oct-25 07:32N 34°33' E 135°27'0 0.0
2014-Oct-25 06:33N 34°33' E 135°27'0 0.0
2014-Oct-25 05:32N 34°33' E 135°27'0 0.0
2014-Oct-25 04:22N 34°33' E 135°27'7 8.4
2014-Oct-25 03:33N 34°29' E 135°20'1211.8
2014-Oct-25 02:33N 34°22' E 135°09'1211.5
2014-Oct-25 01:32N 34°13' E 134°60'  
2014-Oct-22 20:33N 34°40' E 134°49'1312.7
2014-Oct-22 19:33N 34°37' E 135°03'1212.4
2014-Oct-22 18:33N 34°34' E 135°18'7 7.1
2014-Oct-22 17:33N 34°33' E 135°27'0 0.0
2014-Oct-22 16:33N 34°33' E 135°27'0 0.0
2014-Oct-22 15:33N 34°33' E 135°27'0 0.0
2014-Oct-22 14:33N 34°33' E 135°27'0 0.0
2014-Oct-22 13:33N 34°33' E 135°27'0 0.0
2014-Oct-22 12:32N 34°33' E 135°27'0 0.0
2014-Oct-22 11:33N 34°33' E 135°27'0 0.0
2014-Oct-22 10:33N 34°33' E 135°27'0 0.0
2014-Oct-22 09:26N 34°33' E 135°27'0 0.0
2014-Oct-22 08:19N 34°33' E 135°27'0 0.0
2014-Oct-22 07:31N 34°33' E 135°27'0 0.0
2014-Oct-22 06:19N 34°33' E 135°27'0 0.0
2014-Oct-22 05:22N 34°33' E 135°27'0 0.0
2014-Oct-22 04:32N 34°33' E 135°27'0 0.0
2014-Oct-22 03:20N 34°33' E 135°27'2 2.6
2014-Oct-22 02:33N 34°33' E 135°24'0 0.1
2014-Oct-22 01:33N 34°33' E 135°24'2 1.7
2014-Oct-22 00:25N 34°33' E 135°22'1 1.4
2014-Oct-21 23:33N 34°33' E 135°20'5 5.1
2014-Oct-21 22:32N 34°33' E 135°27'0 0.0
2014-Oct-21 21:26N 34°33' E 135°27'0 0.0
2014-Oct-21 20:33N 34°33' E 135°27'0 0.0
2014-Oct-21 19:33N 34°33' E 135°27'0 0.0
2014-Oct-21 18:32N 34°33' E 135°27'0 0.0
2014-Oct-21 17:32N 34°33' E 135°27'0 0.0
2014-Oct-21 16:33N 34°33' E 135°27'0 0.0
2014-Oct-21 15:33N 34°33' E 135°27'0 0.0
2014-Oct-21 14:33N 34°33' E 135°27'0 0.0
2014-Oct-21 13:33N 34°33' E 135°27'0 0.0
2014-Oct-21 12:33N 34°33' E 135°27'0 0.0
2014-Oct-21 11:33N 34°33' E 135°27'0 0.0
2014-Oct-21 10:33N 34°33' E 135°27'0 0.0
2014-Oct-21 09:04N 34°33' E 135°27'0 0.0
2014-Oct-21 08:33N 34°33' E 135°27'0 0.0
2014-Oct-21 07:31N 34°33' E 135°27'0 0.0
2014-Oct-21 05:33N 34°33' E 135°27'0 0.0
2014-Oct-21 04:31N 34°33' E 135°27'0 0.0
2014-Oct-21 03:33N 34°33' E 135°27'0 0.0
2014-Oct-21 02:26N 34°33' E 135°27'0 0.0
2014-Oct-21 01:31N 34°33' E 135°27'0 0.0
2014-Oct-21 00:33N 34°33' E 135°27'4 3.7
2014-Oct-20 23:33N 34°33' E 135°22'3 2.8
2014-Oct-20 22:33N 34°33' E 135°25'0 0.1
2014-Oct-20 21:33N 34°33' E 135°25'0 0.1
2014-Oct-20 20:33N 34°33' E 135°25'0 0.1
2014-Oct-20 19:33N 34°33' E 135°25'0 0.0
2014-Oct-20 18:33N 34°33' E 135°25'0 0.1
2014-Oct-20 17:29N 34°33' E 135°25'0 0.1
2014-Oct-20 16:33N 34°33' E 135°25'0 0.0
2014-Oct-20 15:32N 34°33' E 135°25'0 0.0
2014-Oct-20 14:33N 34°33' E 135°25'0 0.0
2014-Oct-20 13:32N 34°33' E 135°25'0 0.0
2014-Oct-20 12:33N 34°33' E 135°25'0 0.1
2014-Oct-20 11:33N 34°33' E 135°25'0 0.0
2014-Oct-20 10:33N 34°33' E 135°25'0 0.1
2014-Oct-20 09:33N 34°33' E 135°25'0 0.0
2014-Oct-20 08:30N 34°33' E 135°25'0 0.1
2014-Oct-20 07:32N 34°33' E 135°25'0 0.1
2014-Oct-20 06:31N 34°33' E 135°25'0 0.0
2014-Oct-20 05:31N 34°33' E 135°25'0 0.1
2014-Oct-20 04:33N 34°33' E 135°25'  

Dump ship's entire track history